Terminal Aerodrome Forecast
Issued by NWS

Home | Current Version | Previous Version | Text Only | Print | Product List | Glossary On
Versions: 1 2 3 4 5 6 7 8 9 10 11 12 13 14
796
FTUS46 KMTR 102340
TAFSNS
TAF
KSNS 102340Z 1100/1124 24004KT P6SM SKC
     FM110400 30004KT P6SM SCT200
     FM110700 11006KT 6SM HZ SCT200
     FM112000 27008KT P6SM SCT200=

USA.gov is the U.S. government's official web portal to all federal, state and local government web resources and services.